sensor_id;sensor_type;location;lat;lon;timestamp;P1;durP1;ratioP1;P2;durP2;ratioP2
78858;SDS011;68210;52.032;4.634;2023-07-09T00:01:32;12.65;;;7.82;;
78858;SDS011;68210;52.032;4.634;2023-07-09T00:03:33;13.80;;;7.78;;
78858;SDS011;68210;52.032;4.634;2023-07-09T00:05:33;12.90;;;7.43;;
78858;SDS011;68210;52.032;4.634;2023-07-09T00:07:33;12.15;;;7.35;;
78858;SDS011;68210;52.032;4.634;2023-07-09T00:09:34;13.88;;;8.02;;
78858;SDS011;68210;52.032;4.634;2023-07-09T00:11:35;16.23;;;7.88;;
78858;SDS011;68210;52.032;4.634;2023-07-09T00:13:35;11.95;;;7.55;;
78858;SDS011;68210;52.032;4.634;2023-07-09T00:15:36;12.75;;;8.02;;
78858;SDS011;68210;52.032;4.634;2023-07-09T00:17:36;16.77;;;8.07;;
78858;SDS011;68210;52.032;4.634;2023-07-09T00:19:37;13.95;;;8.43;;
78858;SDS011;68210;52.032;4.634;2023-07-09T00:21:38;13.73;;;7.68;;
78858;SDS011;68210;52.032;4.634;2023-07-09T00:23:38;15.20;;;7.60;;
78858;SDS011;68210;52.032;4.634;2023-07-09T00:25:40;13.10;;;7.15;;
78858;SDS011;68210;52.032;4.634;2023-07-09T00:27:44;13.80;;;7.43;;
78858;SDS011;68210;52.032;4.634;2023-07-09T00:29:48;16.48;;;8.32;;
78858;SDS011;68210;52.032;4.634;2023-07-09T00:31:48;14.20;;;9.13;;
78858;SDS011;68210;52.032;4.634;2023-07-09T00:33:49;13.02;;;8.20;;
78858;SDS011;68210;52.032;4.634;2023-07-09T00:35:49;13.45;;;8.00;;
78858;SDS011;68210;52.032;4.634;2023-07-09T00:37:51;12.57;;;7.72;;
78858;SDS011;68210;52.032;4.634;2023-07-09T00:39:51;12.27;;;7.05;;
78858;SDS011;68210;52.032;4.634;2023-07-09T00:41:51;14.85;;;8.70;;
78858;SDS011;68210;52.032;4.634;2023-07-09T00:43:52;15.23;;;8.38;;
78858;SDS011;68210;52.032;4.634;2023-07-09T00:48:22;16.20;;;9.02;;
78858;SDS011;68210;52.032;4.634;2023-07-09T00:52:52;12.82;;;7.82;;
78858;SDS011;68210;52.032;4.634;2023-07-09T00:55:22;15.10;;;9.65;;
78858;SDS011;68210;52.032;4.634;2023-07-09T00:57:24;15.73;;;8.85;;
78858;SDS011;68210;52.032;4.634;2023-07-09T04:23:55;16.75;;;12.25;;
78858;SDS011;68210;52.032;4.634;2023-07-09T04:25:55;17.58;;;12.07;;
78858;SDS011;68210;52.032;4.634;2023-07-09T04:27:56;18.52;;;11.77;;
78858;SDS011;68210;52.032;4.634;2023-07-09T04:29:56;19.27;;;12.90;;
78858;SDS011;68210;52.032;4.634;2023-07-09T04:31:57;17.35;;;11.30;;
78858;SDS011;68210;52.032;4.634;2023-07-09T04:39:31;18.65;;;12.07;;
78858;SDS011;68210;52.032;4.634;2023-07-09T04:41:32;18.35;;;11.98;;
78858;SDS011;68210;52.032;4.634;2023-07-09T04:43:33;19.10;;;12.93;;
78858;SDS011;68210;52.032;4.634;2023-07-09T04:45:33;17.35;;;11.30;;
78858;SDS011;68210;52.032;4.634;2023-07-09T04:47:34;12.25;;;8.02;;
78858;SDS011;68210;52.032;4.634;2023-07-09T04:49:35;18.83;;;7.38;;
78858;SDS011;68210;52.032;4.634;2023-07-09T04:51:35;12.02;;;8.13;;
78858;SDS011;68210;52.032;4.634;2023-07-09T04:53:35;11.95;;;7.53;;
78858;SDS011;68210;52.032;4.634;2023-07-09T04:55:36;16.58;;;10.23;;
78858;SDS011;68210;52.032;4.634;2023-07-09T04:57:37;15.43;;;10.45;;
78858;SDS011;68210;52.032;4.634;2023-07-09T04:59:37;17.30;;;11.10;;
78858;SDS011;68210;52.032;4.634;2023-07-09T05:01:38;12.27;;;9.18;;
78858;SDS011;68210;52.032;4.634;2023-07-09T05:03:38;15.75;;;10.90;;
78858;SDS011;68210;52.032;4.634;2023-07-09T05:05:42;19.65;;;11.23;;
78858;SDS011;68210;52.032;4.634;2023-07-09T05:07:43;15.48;;;9.30;;
78858;SDS011;68210;52.032;4.634;2023-07-09T05:09:43;12.70;;;9.27;;
78858;SDS011;68210;52.032;4.634;2023-07-09T05:11:44;14.43;;;10.05;;
78858;SDS011;68210;52.032;4.634;2023-07-09T05:13:44;15.85;;;9.80;;
78858;SDS011;68210;52.032;4.634;2023-07-09T05:15:45;12.73;;;6.93;;
78858;SDS011;68210;52.032;4.634;2023-07-09T05:17:46;17.63;;;10.43;;
78858;SDS011;68210;52.032;4.634;2023-07-09T05:19:47;19.17;;;12.57;;
78858;SDS011;68210;52.032;4.634;2023-07-09T05:21:47;12.95;;;6.72;;
78858;SDS011;68210;52.032;4.634;2023-07-09T05:23:48;17.50;;;11.55;;
78858;SDS011;68210;52.032;4.634;2023-07-09T05:25:48;15.93;;;11.60;;
78858;SDS011;68210;52.032;4.634;2023-07-09T05:27:49;17.17;;;10.18;;
78858;SDS011;68210;52.032;4.634;2023-07-09T05:29:49;16.65;;;10.57;;
78858;SDS011;68210;52.032;4.634;2023-07-09T05:31:49;12.15;;;7.70;;
78858;SDS011;68210;52.032;4.634;2023-07-09T05:33:50;11.80;;;8.75;;
78858;SDS011;68210;52.032;4.634;2023-07-09T05:35:50;12.45;;;9.20;;
78858;SDS011;68210;52.032;4.634;2023-07-09T05:37:51;18.60;;;12.70;;
78858;SDS011;68210;52.032;4.634;2023-07-09T05:39:53;12.57;;;8.40;;
78858;SDS011;68210;52.032;4.634;2023-07-09T05:41:53;20.88;;;14.13;;
78858;SDS011;68210;52.032;4.634;2023-07-09T05:43:53;17.13;;;11.07;;
78858;SDS011;68210;52.032;4.634;2023-07-09T05:45:54;23.13;;;14.40;;
78858;SDS011;68210;52.032;4.634;2023-07-09T05:47:54;28.45;;;16.95;;
78858;SDS011;68210;52.032;4.634;2023-07-09T05:49:54;21.30;;;15.85;;
78858;SDS011;68210;52.032;4.634;2023-07-09T05:51:55;28.30;;;17.20;;
78858;SDS011;68210;52.032;4.634;2023-07-09T05:53:55;19.10;;;12.25;;
78858;SDS011;68210;52.032;4.634;2023-07-09T05:55:56;23.55;;;14.68;;
78858;SDS011;68210;52.032;4.634;2023-07-09T05:57:56;22.02;;;16.33;;
78858;SDS011;68210;52.032;4.634;2023-07-09T05:59:57;27.05;;;19.17;;
78858;SDS011;68210;52.032;4.634;2023-07-09T06:01:57;24.58;;;19.52;;
78858;SDS011;68210;52.032;4.634;2023-07-09T06:03:57;30.05;;;21.15;;
78858;SDS011;68210;52.032;4.634;2023-07-09T06:05:58;23.08;;;16.73;;
78858;SDS011;68210;52.032;4.634;2023-07-09T06:08:00;24.27;;;16.30;;
78858;SDS011;68210;52.032;4.634;2023-07-09T06:10:00;31.45;;;20.42;;
78858;SDS011;68210;52.032;4.634;2023-07-09T06:12:01;23.52;;;16.50;;
78858;SDS011;68210;52.032;4.634;2023-07-09T06:14:03;29.42;;;20.65;;
78858;SDS011;68210;52.032;4.634;2023-07-09T06:16:03;24.17;;;18.00;;
78858;SDS011;68210;52.032;4.634;2023-07-09T06:18:04;27.42;;;20.85;;
78858;SDS011;68210;52.032;4.634;2023-07-09T06:20:05;23.98;;;18.58;;
78858;SDS011;68210;52.032;4.634;2023-07-09T06:22:06;28.08;;;20.45;;
78858;SDS011;68210;52.032;4.634;2023-07-09T06:24:06;27.63;;;19.63;;
78858;SDS011;68210;52.032;4.634;2023-07-09T06:26:08;26.92;;;21.13;;
78858;SDS011;68210;52.032;4.634;2023-07-09T06:28:08;26.67;;;19.98;;
78858;SDS011;68210;52.032;4.634;2023-07-09T06:30:09;25.35;;;18.15;;
78858;SDS011;68210;52.032;4.634;2023-07-09T06:32:09;27.45;;;23.40;;
78858;SDS011;68210;52.032;4.634;2023-07-09T06:34:10;30.27;;;21.52;;
78858;SDS011;68210;52.032;4.634;2023-07-09T06:36:10;29.98;;;22.45;;
78858;SDS011;68210;52.032;4.634;2023-07-09T06:38:11;32.72;;;22.83;;
78858;SDS011;68210;52.032;4.634;2023-07-09T06:40:11;28.67;;;21.90;;
78858;SDS011;68210;52.032;4.634;2023-07-09T06:42:12;27.20;;;20.45;;
78858;SDS011;68210;52.032;4.634;2023-07-09T06:44:13;29.55;;;23.15;;
78858;SDS011;68210;52.032;4.634;2023-07-09T06:46:14;26.02;;;19.67;;
78858;SDS011;68210;52.032;4.634;2023-07-09T06:48:15;24.42;;;18.85;;
78858;SDS011;68210;52.032;4.634;2023-07-09T06:50:16;27.85;;;20.58;;
78858;SDS011;68210;52.032;4.634;2023-07-09T06:52:16;18.45;;;14.05;;
78858;SDS011;68210;52.032;4.634;2023-07-09T06:54:17;29.02;;;22.30;;
78858;SDS011;68210;52.032;4.634;2023-07-09T06:56:17;32.47;;;23.65;;
78858;SDS011;68210;52.032;4.634;2023-07-09T06:58:18;34.50;;;25.33;;
78858;SDS011;68210;52.032;4.634;2023-07-09T07:00:19;29.00;;;21.88;;
78858;SDS011;68210;52.032;4.634;2023-07-09T07:02:19;28.65;;;21.80;;
78858;SDS011;68210;52.032;4.634;2023-07-09T07:04:19;29.63;;;21.25;;
78858;SDS011;68210;52.032;4.634;2023-07-09T07:06:20;29.08;;;20.90;;
78858;SDS011;68210;52.032;4.634;2023-07-09T07:08:21;30.40;;;23.50;;
78858;SDS011;68210;52.032;4.634;2023-07-09T07:10:25;28.15;;;21.55;;
78858;SDS011;68210;52.032;4.634;2023-07-09T07:12:27;24.33;;;19.98;;
78858;SDS011;68210;52.032;4.634;2023-07-09T07:14:29;29.80;;;22.67;;
78858;SDS011;68210;52.032;4.634;2023-07-09T07:16:30;24.83;;;17.98;;
78858;SDS011;68210;52.032;4.634;2023-07-09T07:18:30;21.88;;;17.58;;
78858;SDS011;68210;52.032;4.634;2023-07-09T07:20:31;15.27;;;10.25;;
78858;SDS011;68210;52.032;4.634;2023-07-09T07:22:31;14.07;;;10.00;;
78858;SDS011;68210;52.032;4.634;2023-07-09T07:24:32;14.55;;;10.45;;
78858;SDS011;68210;52.032;4.634;2023-07-09T07:26:32;17.02;;;11.10;;
78858;SDS011;68210;52.032;4.634;2023-07-09T07:28:36;16.10;;;12.00;;
78858;SDS011;68210;52.032;4.634;2023-07-09T07:30:37;18.25;;;13.02;;
78858;SDS011;68210;52.032;4.634;2023-07-09T07:32:38;18.45;;;13.77;;
78858;SDS011;68210;52.032;4.634;2023-07-09T07:34:41;20.52;;;13.15;;
78858;SDS011;68210;52.032;4.634;2023-07-09T07:36:43;18.73;;;12.80;;
78858;SDS011;68210;52.032;4.634;2023-07-09T07:38:43;17.58;;;13.13;;
78858;SDS011;68210;52.032;4.634;2023-07-09T07:40:44;19.60;;;11.43;;
78858;SDS011;68210;52.032;4.634;2023-07-09T07:42:46;16.58;;;11.63;;
78858;SDS011;68210;52.032;4.634;2023-07-09T07:44:46;17.92;;;12.15;;
78858;SDS011;68210;52.032;4.634;2023-07-09T07:46:46;13.60;;;8.57;;
78858;SDS011;68210;52.032;4.634;2023-07-09T07:48:47;11.32;;;7.15;;
78858;SDS011;68210;52.032;4.634;2023-07-09T07:50:47;11.43;;;7.45;;
78858;SDS011;68210;52.032;4.634;2023-07-09T07:52:48;10.75;;;6.90;;
78858;SDS011;68210;52.032;4.634;2023-07-09T07:54:49;10.63;;;7.15;;
78858;SDS011;68210;52.032;4.634;2023-07-09T07:56:50;11.90;;;7.45;;
78858;SDS011;68210;52.032;4.634;2023-07-09T07:58:51;13.32;;;6.50;;
78858;SDS011;68210;52.032;4.634;2023-07-09T08:00:54;10.52;;;7.38;;
78858;SDS011;68210;52.032;4.634;2023-07-09T08:02:56;10.30;;;6.43;;
78858;SDS011;68210;52.032;4.634;2023-07-09T08:04:57;12.30;;;6.45;;
78858;SDS011;68210;52.032;4.634;2023-07-09T08:06:57;9.90;;;6.18;;
78858;SDS011;68210;52.032;4.634;2023-07-09T08:08:58;10.55;;;7.35;;
78858;SDS011;68210;52.032;4.634;2023-07-09T08:11:03;8.35;;;5.63;;
78858;SDS011;68210;52.032;4.634;2023-07-09T08:13:04;10.73;;;5.80;;
78858;SDS011;68210;52.032;4.634;2023-07-09T08:15:05;10.82;;;5.68;;
78858;SDS011;68210;52.032;4.634;2023-07-09T08:17:06;9.13;;;5.25;;
78858;SDS011;68210;52.032;4.634;2023-07-09T08:19:07;11.43;;;5.85;;
78858;SDS011;68210;52.032;4.634;2023-07-09T08:21:07;8.20;;;5.38;;
78858;SDS011;68210;52.032;4.634;2023-07-09T08:23:08;9.40;;;5.20;;
78858;SDS011;68210;52.032;4.634;2023-07-09T08:25:08;8.68;;;5.00;;
78858;SDS011;68210;52.032;4.634;2023-07-09T08:27:08;11.25;;;4.60;;
78858;SDS011;68210;52.032;4.634;2023-07-09T08:29:09;8.15;;;5.07;;
78858;SDS011;68210;52.032;4.634;2023-07-09T08:31:09;9.20;;;5.15;;
78858;SDS011;68210;52.032;4.634;2023-07-09T08:33:10;9.10;;;5.18;;
78858;SDS011;68210;52.032;4.634;2023-07-09T08:35:10;8.88;;;5.47;;
78858;SDS011;68210;52.032;4.634;2023-07-09T08:37:12;8.23;;;5.07;;
78858;SDS011;68210;52.032;4.634;2023-07-09T08:39:12;9.88;;;5.68;;
78858;SDS011;68210;52.032;4.634;2023-07-09T08:41:37;9.40;;;5.13;;
78858;SDS011;68210;52.032;4.634;2023-07-09T08:45:57;7.47;;;5.05;;
78858;SDS011;68210;52.032;4.634;2023-07-09T08:48:04;10.93;;;5.00;;
78858;SDS011;68210;52.032;4.634;2023-07-09T08:50:09;8.43;;;4.82;;
78858;SDS011;68210;52.032;4.634;2023-07-09T08:52:19;8.32;;;4.97;;
78858;SDS011;68210;52.032;4.634;2023-07-09T08:54:35;8.00;;;5.30;;
78858;SDS011;68210;52.032;4.634;2023-07-09T08:56:37;8.35;;;5.15;;
78858;SDS011;68210;52.032;4.634;2023-07-09T08:58:37;8.45;;;5.43;;
78858;SDS011;68210;52.032;4.634;2023-07-09T09:02:58;9.57;;;4.97;;
78858;SDS011;68210;52.032;4.634;2023-07-09T09:05:03;11.20;;;5.78;;
78858;SDS011;68210;52.032;4.634;2023-07-09T09:09:46;8.65;;;5.90;;
78858;SDS011;68210;52.032;4.634;2023-07-09T09:14:18;9.98;;;5.60;;
78858;SDS011;68210;52.032;4.634;2023-07-09T09:16:25;11.50;;;6.03;;
78858;SDS011;68210;52.032;4.634;2023-07-09T09:18:28;9.90;;;5.28;;
78858;SDS011;68210;52.032;4.634;2023-07-09T09:20:40;7.38;;;5.07;;
78858;SDS011;68210;52.032;4.634;2023-07-09T09:27:33;7.78;;;5.00;;
78858;SDS011;68210;52.032;4.634;2023-07-09T09:29:33;9.98;;;5.13;;
78858;SDS011;68210;52.032;4.634;2023-07-09T09:31:33;9.93;;;5.43;;
78858;SDS011;68210;52.032;4.634;2023-07-09T09:33:52;8.65;;;6.07;;
78858;SDS011;68210;52.032;4.634;2023-07-09T09:36:00;7.90;;;5.65;;
78858;SDS011;68210;52.032;4.634;2023-07-09T09:38:09;8.10;;;5.68;;
78858;SDS011;68210;52.032;4.634;2023-07-09T09:40:11;14.77;;;5.38;;
78858;SDS011;68210;52.032;4.634;2023-07-09T09:42:11;9.13;;;5.68;;
78858;SDS011;68210;52.032;4.634;2023-07-09T09:44:19;7.78;;;5.22;;
78858;SDS011;68210;52.032;4.634;2023-07-09T09:46:25;8.95;;;5.97;;
78858;SDS011;68210;52.032;4.634;2023-07-09T09:48:30;7.85;;;5.47;;
78858;SDS011;68210;52.032;4.634;2023-07-09T09:50:32;7.78;;;5.07;;
78858;SDS011;68210;52.032;4.634;2023-07-09T09:52:33;9.85;;;5.82;;
78858;SDS011;68210;52.032;4.634;2023-07-09T09:54:34;8.73;;;4.95;;
78858;SDS011;68210;52.032;4.634;2023-07-09T09:56:36;7.72;;;4.78;;
78858;SDS011;68210;52.032;4.634;2023-07-09T09:58:39;10.30;;;5.28;;
78858;SDS011;68210;52.032;4.634;2023-07-09T10:00:40;8.70;;;5.28;;
78858;SDS011;68210;52.032;4.634;2023-07-09T10:02:48;7.65;;;5.00;;
78858;SDS011;68210;52.032;4.634;2023-07-09T10:04:49;9.65;;;5.57;;
78858;SDS011;68210;52.032;4.634;2023-07-09T10:06:52;7.82;;;5.43;;
78858;SDS011;68210;52.032;4.634;2023-07-09T10:11:19;8.13;;;5.43;;
78858;SDS011;68210;52.032;4.634;2023-07-09T10:13:30;10.00;;;5.00;;
78858;SDS011;68210;52.032;4.634;2023-07-09T10:15:42;11.23;;;5.35;;
78858;SDS011;68210;52.032;4.634;2023-07-09T10:23:21;6.38;;;3.25;;
78858;SDS011;68210;52.032;4.634;2023-07-09T10:32:12;7.43;;;3.63;;
78858;SDS011;68210;52.032;4.634;2023-07-09T10:34:32;7.20;;;3.60;;
78858;SDS011;68210;52.032;4.634;2023-07-09T10:38:55;6.63;;;3.72;;
78858;SDS011;68210;52.032;4.634;2023-07-09T10:41:02;5.22;;;3.30;;
78858;SDS011;68210;52.032;4.634;2023-07-09T10:43:11;6.13;;;3.55;;
78858;SDS011;68210;52.032;4.634;2023-07-09T10:45:19;4.88;;;2.83;;
78858;SDS011;68210;52.032;4.634;2023-07-09T10:49:36;5.65;;;3.72;;
78858;SDS011;68210;52.032;4.634;2023-07-09T10:51:40;5.82;;;3.45;;
78858;SDS011;68210;52.032;4.634;2023-07-09T10:53:55;4.82;;;3.10;;
78858;SDS011;68210;52.032;4.634;2023-07-09T10:56:14;7.68;;;4.43;;
78858;SDS011;68210;52.032;4.634;2023-07-09T10:58:25;5.78;;;3.70;;
78858;SDS011;68210;52.032;4.634;2023-07-09T11:00:34;6.22;;;3.30;;
78858;SDS011;68210;52.032;4.634;2023-07-09T11:02:39;3.63;;;2.70;;
78858;SDS011;68210;52.032;4.634;2023-07-09T11:04:49;4.13;;;2.80;;
78858;SDS011;68210;52.032;4.634;2023-07-09T11:06:53;4.30;;;2.50;;
78858;SDS011;68210;52.032;4.634;2023-07-09T11:08:56;5.95;;;2.78;;
78858;SDS011;68210;52.032;4.634;2023-07-09T11:11:09;6.40;;;2.85;;
78858;SDS011;68210;52.032;4.634;2023-07-09T11:13:18;5.13;;;2.92;;
78858;SDS011;68210;52.032;4.634;2023-07-09T11:15:27;4.68;;;3.03;;
78858;SDS011;68210;52.032;4.634;2023-07-09T11:17:38;5.43;;;2.72;;
78858;SDS011;68210;52.032;4.634;2023-07-09T11:19:41;6.25;;;3.10;;
78858;SDS011;68210;52.032;4.634;2023-07-09T11:24:02;5.22;;;2.95;;
78858;SDS011;68210;52.032;4.634;2023-07-09T11:26:08;6.80;;;2.92;;
78858;SDS011;68210;52.032;4.634;2023-07-09T11:28:11;5.78;;;3.55;;
78858;SDS011;68210;52.032;4.634;2023-07-09T11:32:22;4.95;;;3.15;;
78858;SDS011;68210;52.032;4.634;2023-07-09T11:34:26;5.55;;;2.97;;
78858;SDS011;68210;52.032;4.634;2023-07-09T11:36:29;9.38;;;3.35;;
78858;SDS011;68210;52.032;4.634;2023-07-09T11:38:36;6.10;;;3.90;;
78858;SDS011;68210;52.032;4.634;2023-07-09T11:40:54;9.80;;;3.33;;
78858;SDS011;68210;52.032;4.634;2023-07-09T11:42:56;5.75;;;3.38;;
78858;SDS011;68210;52.032;4.634;2023-07-09T11:45:01;6.72;;;3.55;;
78858;SDS011;68210;52.032;4.634;2023-07-09T11:47:13;4.57;;;3.20;;
78858;SDS011;68210;52.032;4.634;2023-07-09T11:49:18;6.10;;;3.53;;
78858;SDS011;68210;52.032;4.634;2023-07-09T11:51:22;8.07;;;3.97;;
78858;SDS011;68210;52.032;4.634;2023-07-09T11:55:40;5.57;;;2.97;;
78858;SDS011;68210;52.032;4.634;2023-07-09T11:57:46;5.00;;;3.75;;
78858;SDS011;68210;52.032;4.634;2023-07-09T11:59:47;4.43;;;3.30;;
78858;SDS011;68210;52.032;4.634;2023-07-09T12:01:48;4.80;;;3.25;;
78858;SDS011;68210;52.032;4.634;2023-07-09T12:03:52;5.50;;;2.92;;
78858;SDS011;68210;52.032;4.634;2023-07-09T12:05:53;5.40;;;2.80;;
78858;SDS011;68210;52.032;4.634;2023-07-09T12:07:56;4.15;;;2.30;;
78858;SDS011;68210;52.032;4.634;2023-07-09T12:09:58;4.85;;;2.40;;
78858;SDS011;68210;52.032;4.634;2023-07-09T12:11:58;4.50;;;2.35;;
78858;SDS011;68210;52.032;4.634;2023-07-09T12:14:08;5.65;;;2.65;;
78858;SDS011;68210;52.032;4.634;2023-07-09T12:18:24;5.10;;;2.60;;
78858;SDS011;68210;52.032;4.634;2023-07-09T12:20:25;3.60;;;2.42;;
78858;SDS011;68210;52.032;4.634;2023-07-09T12:22:29;7.28;;;3.55;;
78858;SDS011;68210;52.032;4.634;2023-07-09T12:24:30;3.88;;;2.45;;
78858;SDS011;68210;52.032;4.634;2023-07-09T12:26:35;3.35;;;2.15;;
78858;SDS011;68210;52.032;4.634;2023-07-09T12:28:36;4.35;;;2.05;;
78858;SDS011;68210;52.032;4.634;2023-07-09T12:30:36;6.40;;;2.47;;
78858;SDS011;68210;52.032;4.634;2023-07-09T12:32:42;5.72;;;2.33;;
78858;SDS011;68210;52.032;4.634;2023-07-09T12:34:51;5.78;;;2.83;;
78858;SDS011;68210;52.032;4.634;2023-07-09T12:36:53;7.30;;;2.90;;
78858;SDS011;68210;52.032;4.634;2023-07-09T12:38:56;5.28;;;2.47;;
78858;SDS011;68210;52.032;4.634;2023-07-09T12:41:00;7.05;;;3.30;;
78858;SDS011;68210;52.032;4.634;2023-07-09T12:43:03;7.47;;;3.45;;
78858;SDS011;68210;52.032;4.634;2023-07-09T12:45:04;7.05;;;3.33;;
78858;SDS011;68210;52.032;4.634;2023-07-09T12:47:06;9.25;;;3.72;;
78858;SDS011;68210;52.032;4.634;2023-07-09T12:49:22;7.00;;;3.50;;
78858;SDS011;68210;52.032;4.634;2023-07-09T12:51:30;10.27;;;4.13;;
78858;SDS011;68210;52.032;4.634;2023-07-09T12:53:31;8.88;;;3.25;;
78858;SDS011;68210;52.032;4.634;2023-07-09T12:55:37;9.70;;;3.80;;
78858;SDS011;68210;52.032;4.634;2023-07-09T12:57:39;7.68;;;3.58;;
78858;SDS011;68210;52.032;4.634;2023-07-09T12:59:41;12.38;;;3.30;;
78858;SDS011;68210;52.032;4.634;2023-07-09T13:01:42;11.60;;;3.38;;
78858;SDS011;68210;52.032;4.634;2023-07-09T13:03:55;6.13;;;2.85;;
78858;SDS011;68210;52.032;4.634;2023-07-09T13:06:06;8.48;;;3.03;;
78858;SDS011;68210;52.032;4.634;2023-07-09T13:08:27;7.35;;;3.00;;
78858;SDS011;68210;52.032;4.634;2023-07-09T13:10:30;10.02;;;3.92;;
78858;SDS011;68210;52.032;4.634;2023-07-09T13:12:32;8.45;;;3.42;;
78858;SDS011;68210;52.032;4.634;2023-07-09T13:14:33;11.43;;;3.15;;
78858;SDS011;68210;52.032;4.634;2023-07-09T13:16:39;10.60;;;3.83;;
78858;SDS011;68210;52.032;4.634;2023-07-09T13:18:40;8.35;;;3.47;;
78858;SDS011;68210;52.032;4.634;2023-07-09T13:20:41;12.95;;;4.18;;
78858;SDS011;68210;52.032;4.634;2023-07-09T13:22:43;8.05;;;3.60;;
78858;SDS011;68210;52.032;4.634;2023-07-09T13:24:44;11.18;;;3.47;;
78858;SDS011;68210;52.032;4.634;2023-07-09T13:26:46;13.27;;;5.00;;
78858;SDS011;68210;52.032;4.634;2023-07-09T13:28:46;12.00;;;4.10;;
78858;SDS011;68210;52.032;4.634;2023-07-09T13:30:48;13.00;;;4.90;;
78858;SDS011;68210;52.032;4.634;2023-07-09T13:32:50;12.40;;;5.05;;
78858;SDS011;68210;52.032;4.634;2023-07-09T13:34:51;15.88;;;5.68;;
78858;SDS011;68210;52.032;4.634;2023-07-09T13:36:52;11.35;;;5.72;;
78858;SDS011;68210;52.032;4.634;2023-07-09T13:38:54;10.70;;;4.75;;
78858;SDS011;68210;52.032;4.634;2023-07-09T13:40:55;14.57;;;6.07;;
78858;SDS011;68210;52.032;4.634;2023-07-09T13:42:58;15.88;;;6.47;;
78858;SDS011;68210;52.032;4.634;2023-07-09T13:44:59;11.68;;;5.70;;
78858;SDS011;68210;52.032;4.634;2023-07-09T13:46:59;15.85;;;6.40;;
78858;SDS011;68210;52.032;4.634;2023-07-09T13:48:59;11.32;;;6.00;;
78858;SDS011;68210;52.032;4.634;2023-07-09T13:51:12;15.82;;;6.60;;
78858;SDS011;68210;52.032;4.634;2023-07-09T13:53:20;12.38;;;5.78;;
78858;SDS011;68210;52.032;4.634;2023-07-09T13:55:24;10.77;;;5.43;;
78858;SDS011;68210;52.032;4.634;2023-07-09T13:57:25;16.50;;;6.28;;
78858;SDS011;68210;52.032;4.634;2023-07-09T13:59:26;12.18;;;5.47;;
78858;SDS011;68210;52.032;4.634;2023-07-09T14:01:27;14.73;;;6.32;;
78858;SDS011;68210;52.032;4.634;2023-07-09T14:03:28;11.20;;;6.05;;
78858;SDS011;68210;52.032;4.634;2023-07-09T14:05:31;11.45;;;5.40;;
78858;SDS011;68210;52.032;4.634;2023-07-09T14:07:32;11.02;;;6.05;;
78858;SDS011;68210;52.032;4.634;2023-07-09T14:09:34;12.60;;;5.55;;
78858;SDS011;68210;52.032;4.634;2023-07-09T14:11:34;10.27;;;5.25;;
78858;SDS011;68210;52.032;4.634;2023-07-09T14:13:47;10.25;;;4.88;;
78858;SDS011;68210;52.032;4.634;2023-07-09T14:15:47;10.40;;;4.63;;
78858;SDS011;68210;52.032;4.634;2023-07-09T14:17:48;14.25;;;4.82;;
78858;SDS011;68210;52.032;4.634;2023-07-09T14:19:48;14.02;;;5.50;;
78858;SDS011;68210;52.032;4.634;2023-07-09T14:21:49;12.90;;;6.95;;
78858;SDS011;68210;52.032;4.634;2023-07-09T14:23:51;7.90;;;4.70;;
78858;SDS011;68210;52.032;4.634;2023-07-09T14:25:52;15.02;;;5.35;;
78858;SDS011;68210;52.032;4.634;2023-07-09T14:27:53;14.60;;;5.53;;
78858;SDS011;68210;52.032;4.634;2023-07-09T14:29:54;13.40;;;5.55;;
78858;SDS011;68210;52.032;4.634;2023-07-09T14:31:54;12.07;;;5.13;;
78858;SDS011;68210;52.032;4.634;2023-07-09T14:33:56;17.80;;;7.38;;
78858;SDS011;68210;52.032;4.634;2023-07-09T14:36:11;12.15;;;5.63;;
78858;SDS011;68210;52.032;4.634;2023-07-09T14:38:16;14.00;;;6.38;;
78858;SDS011;68210;52.032;4.634;2023-07-09T14:40:21;14.68;;;6.43;;
78858;SDS011;68210;52.032;4.634;2023-07-09T14:42:22;12.77;;;6.30;;
78858;SDS011;68210;52.032;4.634;2023-07-09T14:44:29;11.75;;;5.07;;
78858;SDS011;68210;52.032;4.634;2023-07-09T14:46:31;12.52;;;5.95;;
78858;SDS011;68210;52.032;4.634;2023-07-09T14:48:31;14.25;;;6.13;;
78858;SDS011;68210;52.032;4.634;2023-07-09T14:50:32;12.43;;;5.80;;
78858;SDS011;68210;52.032;4.634;2023-07-09T14:52:33;13.77;;;6.05;;
78858;SDS011;68210;52.032;4.634;2023-07-09T14:54:33;9.02;;;5.57;;
78858;SDS011;68210;52.032;4.634;2023-07-09T14:56:33;16.35;;;7.10;;
78858;SDS011;68210;52.032;4.634;2023-07-09T14:58:34;10.98;;;5.55;;
78858;SDS011;68210;52.032;4.634;2023-07-09T15:00:34;12.10;;;6.00;;
78858;SDS011;68210;52.032;4.634;2023-07-09T15:02:36;11.80;;;6.15;;
78858;SDS011;68210;52.032;4.634;2023-07-09T15:06:38;11.93;;;4.63;;
78858;SDS011;68210;52.032;4.634;2023-07-09T15:08:38;10.47;;;5.00;;
78858;SDS011;68210;52.032;4.634;2023-07-09T15:10:38;10.38;;;4.88;;
78858;SDS011;68210;52.032;4.634;2023-07-09T15:12:39;8.10;;;4.82;;
78858;SDS011;68210;52.032;4.634;2023-07-09T15:14:41;8.98;;;4.60;;
78858;SDS011;68210;52.032;4.634;2023-07-09T15:16:41;9.48;;;5.03;;
78858;SDS011;68210;52.032;4.634;2023-07-09T15:18:41;8.13;;;4.55;;
78858;SDS011;68210;52.032;4.634;2023-07-09T15:20:43;9.35;;;4.65;;
78858;SDS011;68210;52.032;4.634;2023-07-09T15:22:49;9.15;;;5.03;;
78858;SDS011;68210;52.032;4.634;2023-07-09T15:24:51;10.63;;;4.68;;
78858;SDS011;68210;52.032;4.634;2023-07-09T15:26:52;9.10;;;4.60;;
78858;SDS011;68210;52.032;4.634;2023-07-09T15:28:54;8.18;;;3.70;;
78858;SDS011;68210;52.032;4.634;2023-07-09T15:30:54;8.18;;;4.28;;
78858;SDS011;68210;52.032;4.634;2023-07-09T15:32:55;8.07;;;4.13;;
78858;SDS011;68210;52.032;4.634;2023-07-09T15:34:59;8.13;;;3.33;;
78858;SDS011;68210;52.032;4.634;2023-07-09T15:37:00;4.88;;;3.20;;
78858;SDS011;68210;52.032;4.634;2023-07-09T15:39:02;8.48;;;3.78;;
78858;SDS011;68210;52.032;4.634;2023-07-09T15:41:02;6.07;;;3.65;;
78858;SDS011;68210;52.032;4.634;2023-07-09T15:43:05;7.20;;;3.33;;
78858;SDS011;68210;52.032;4.634;2023-07-09T15:45:08;8.50;;;3.95;;
78858;SDS011;68210;52.032;4.634;2023-07-09T15:47:17;8.32;;;4.20;;
78858;SDS011;68210;52.032;4.634;2023-07-09T15:49:21;8.15;;;4.90;;
78858;SDS011;68210;52.032;4.634;2023-07-09T15:51:21;7.90;;;3.50;;
78858;SDS011;68210;52.032;4.634;2023-07-09T15:53:22;10.07;;;4.40;;
78858;SDS011;68210;52.032;4.634;2023-07-09T15:55:23;7.68;;;4.95;;
78858;SDS011;68210;52.032;4.634;2023-07-09T15:59:43;7.53;;;3.83;;
78858;SDS011;68210;52.032;4.634;2023-07-09T16:01:43;6.63;;;3.92;;
78858;SDS011;68210;52.032;4.634;2023-07-09T16:03:47;9.75;;;4.03;;
78858;SDS011;68210;52.032;4.634;2023-07-09T16:05:49;9.70;;;3.92;;
78858;SDS011;68210;52.032;4.634;2023-07-09T16:07:50;6.57;;;4.00;;
78858;SDS011;68210;52.032;4.634;2023-07-09T16:09:52;9.07;;;3.45;;
78858;SDS011;68210;52.032;4.634;2023-07-09T16:11:53;9.30;;;3.13;;
78858;SDS011;68210;52.032;4.634;2023-07-09T16:13:53;6.03;;;2.20;;
78858;SDS011;68210;52.032;4.634;2023-07-09T16:15:55;7.68;;;2.50;;
78858;SDS011;68210;52.032;4.634;2023-07-09T16:17:55;4.25;;;2.25;;
78858;SDS011;68210;52.032;4.634;2023-07-09T16:19:56;6.50;;;2.47;;
78858;SDS011;68210;52.032;4.634;2023-07-09T16:22:00;4.50;;;2.33;;
78858;SDS011;68210;52.032;4.634;2023-07-09T16:24:03;6.15;;;2.20;;
78858;SDS011;68210;52.032;4.634;2023-07-09T16:26:16;5.63;;;2.35;;
78858;SDS011;68210;52.032;4.634;2023-07-09T16:28:17;5.25;;;2.13;;
78858;SDS011;68210;52.032;4.634;2023-07-09T16:30:20;5.28;;;1.95;;
78858;SDS011;68210;52.032;4.634;2023-07-09T16:32:24;7.65;;;2.28;;
78858;SDS011;68210;52.032;4.634;2023-07-09T16:34:24;6.85;;;2.38;;